Time;durP1;ratioP1;P1;durP2;ratioP2;P2;SDS_P1;SDS_P2;PMS_P1;PMS_P2;Temp;Humidity;BMP_temperature;BMP_pressure;BME280_temperature;BME280_humidity;BME280_pressure;Samples;Min_cycle;Max_cycle;Signal;HPM_P1;HPM_P2
2022/08/11 00:01:54;;;;;;;13.32;12.45;;;;;;;17.38;52.35;101378.28;5012828;28;20038;-76
2022/08/11 00:04:23;;;;;;;13.02;12.13;;;;;;;17.29;52.55;101382.03;5010723;28;20056;-76
2022/08/11 00:06:50;;;;;;;14.23;13.13;;;;;;;17.24;52.04;101380.38;5013547;28;20085;-77
2022/08/11 00:09:20;;;;;;;11.68;10.73;;;;;;;17.14;52.74;101386.78;4995871;28;20041;-76
2022/08/11 00:11:48;;;;;;;12.30;11.40;;;;;;;17.06;53.37;101384.28;5012593;28;20408;-76
2022/08/11 00:14:23;;;;;;;11.85;10.95;;;;;;;16.96;54.03;101394.22;5010574;28;20117;-76
2022/08/11 00:17:16;;;;;;;12.00;11.10;;;;;;;16.94;54.67;101384.50;5013363;28;20045;-76
2022/08/11 00:19:47;;;;;;;12.30;11.25;;;;;;;16.90;54.17;101388.13;5009567;28;20049;-76
2022/08/11 00:22:20;;;;;;;12.07;11.18;;;;;;;16.87;54.33;101389.06;5012871;28;20057;-76
2022/08/11 00:24:46;;;;;;;11.60;10.60;;;;;;;16.83;53.97;101377.56;5012940;28;20064;-76
2022/08/11 00:27:11;;;;;;;10.93;10.13;;;;;;;16.73;55.14;101388.41;5013122;28;20034;-76
2022/08/11 00:29:37;;;;;;;11.18;10.38;;;;;;;16.64;54.74;101386.78;5004130;28;20416;-76
2022/08/11 00:32:05;;;;;;;12.07;11.02;;;;;;;16.63;54.71;101380.56;5012763;28;20037;-76
2022/08/11 00:34:35;;;;;;;11.82;10.93;;;;;;;16.63;54.72;101385.88;5012936;28;20042;-76
2022/08/11 00:37:05;;;;;;;12.32;11.43;;;;;;;16.64;54.50;101387.66;5012805;28;20180;-77
2022/08/11 00:39:34;;;;;;;11.82;10.98;;;;;;;16.70;54.73;101392.00;5012834;28;20034;-77
2022/08/11 00:42:24;;;;;;;12.30;11.30;;;;;;;16.75;54.44;101389.25;5012523;28;20038;-77
2022/08/11 00:45:12;;;;;;;12.13;11.23;;;;;;;16.77;54.56;101392.78;5010428;28;20037;-77
2022/08/11 00:48:17;;;;;;;12.38;11.48;;;;;;;16.76;54.52;101391.88;5010069;28;20069;-76
2022/08/11 00:51:04;;;;;;;11.65;10.63;;;;;;;16.76;54.89;101394.56;5000295;28;20050;-76
2022/08/11 00:53:43;;;;;;;11.68;10.68;;;;;;;16.75;54.43;101394.59;5011615;28;20128;-77
2022/08/11 00:56:25;;;;;;;11.63;10.82;;;;;;;16.75;54.33;101397.25;5010378;28;20044;-76
2022/08/11 00:59:25;;;;;;;12.25;11.15;;;;;;;16.75;54.24;101399.94;5012521;28;20039;-77
2022/08/11 01:01:56;;;;;;;11.88;10.95;;;;;;;16.65;54.49;101393.88;5010411;28;20643;-76
2022/08/11 01:04:39;;;;;;;10.60;9.80;;;;;;;16.61;55.00;101392.16;5012496;28;20034;-76
2022/08/11 01:07:48;;;;;;;10.65;9.75;;;;;;;16.52;55.78;101400.31;5012419;28;20049;-76
2022/08/11 01:10:41;;;;;;;11.90;11.00;;;;;;;16.44;56.37;101385.34;5005882;28;20496;-76
2022/08/11 01:13:30;;;;;;;11.00;10.05;;;;;;;16.32;55.79;101384.66;5010079;28;20089;-77
2022/08/11 01:16:29;;;;;;;11.88;10.77;;;;;;;16.28;56.42;101388.28;5012249;28;20041;-76
2022/08/11 01:19:24;;;;;;;11.02;10.15;;;;;;;16.14;56.86;101386.72;4994056;28;20408;-76
2022/08/11 01:22:30;;;;;;;11.20;10.40;;;;;;;16.07;57.33;101389.50;5010616;28;20512;-76
2022/08/11 01:25:39;;;;;;;11.02;9.93;;;;;;;15.98;57.20;101387.84;5010623;28;20044;-76
2022/08/11 01:28:37;;;;;;;10.05;9.25;;;;;;;15.97;56.50;101388.75;5011979;28;20496;-76
2022/08/11 01:31:17;;;;;;;11.07;10.27;;;;;;;15.95;56.86;101386.09;5010357;28;20091;-76
2022/08/11 01:34:00;;;;;;;11.93;10.73;;;;;;;15.96;57.77;101389.66;5012067;28;20042;-76
2022/08/11 01:36:54;;;;;;;11.55;10.45;;;;;;;15.93;57.96;101393.25;5011282;28;20033;-76
2022/08/11 01:39:33;;;;;;;11.13;10.23;;;;;;;15.84;57.72;101388.03;5011185;28;20033;-76
2022/08/11 01:45:50;;;;;;;;;;;;;;;15.64;59.40;101384.75;5003335;28;20042;-76
2022/08/11 01:48:59;;;;;;;11.00;10.02;;;;;;;15.54;59.52;101384.88;5004327;28;19921;-76
2022/08/11 01:51:49;;;;;;;10.80;9.48;;;;;;;15.46;59.50;101388.56;5011049;28;20542;-76
2022/08/11 01:54:26;;;;;;;11.13;10.23;;;;;;;15.44;58.60;101393.88;5011586;28;20041;-76
2022/08/11 01:57:37;;;;;;;10.88;10.00;;;;;;;15.36;59.43;101389.56;5011669;28;20526;-76
2022/08/11 02:00:11;;;;;;;12.00;11.00;;;;;;;15.38;59.00;101393.06;5001748;28;20420;-76
2022/08/11 02:03:00;;;;;;;11.55;10.60;;;;;;;15.38;60.20;101395.72;5010165;28;20041;-76
2022/08/11 02:06:53;;;;;;;11.38;10.48;;;;;;;15.35;60.16;101399.28;5010442;28;20049;-76
2022/08/11 02:09:00;;;;;;;16.48;11.40;;;;;;;15.21;59.81;101396.81;5010915;28;20046;-76
2022/08/11 02:11:30;;;;;;;12.27;11.15;;;;;;;15.16;60.16;101397.75;5011228;28;20034;-76
2022/08/11 02:14:22;;;;;;;11.55;10.55;;;;;;;15.15;60.79;101396.00;4993519;28;20038;-76
2022/08/11 02:16:56;;;;;;;;;;;;;;;15.02;60.90;101392.59;5011091;28;20522;-76
2022/08/11 02:25:36;;;;;;;12.80;11.80;;;;;;;14.89;60.66;101405.13;5011380;28;20092;-76
2022/08/11 02:28:12;;;;;;;12.90;11.63;;;;;;;14.89;60.67;101408.66;5010167;28;20381;-76
2022/08/11 02:33:21;;;;;;;11.77;10.80;;;;;;;14.85;60.75;101403.38;5010946;28;20052;-76
2022/08/11 02:33:41;;;;;;;12.48;11.27;;;;;;;14.85;60.69;101403.38;5005816;28;20046;-76
2022/08/11 02:36:18;;;;;;;14.32;13.02;;;;;;;14.79;61.23;101406.13;5011262;28;20030;-76
2022/08/11 02:39:08;;;;;;;12.35;11.15;;;;;;;14.76;62.07;101401.72;5011167;28;20088;-76
2022/08/11 02:44:39;;;;;;;12.27;11.07;;;;;;;14.68;61.86;101403.56;5009077;28;20080;-76
2022/08/11 02:47:37;;;;;;;12.55;11.52;;;;;;;14.71;61.82;101411.50;5008681;28;20048;-76
2022/08/11 02:50:18;;;;;;;12.20;10.98;;;;;;;14.71;62.07;101410.63;5012499;28;20037;-76
2022/08/11 02:53:06;;;;;;;12.48;11.55;;;;;;;14.74;62.65;101408.81;5011913;28;20092;-76
2022/08/11 02:55:49;;;;;;;11.88;10.98;;;;;;;14.67;62.52;101405.34;5011818;28;20400;-76
2022/08/11 02:58:40;;;;;;;12.52;10.85;;;;;;;14.68;62.53;101403.56;5014766;28;20037;-76
2022/08/11 03:01:17;;;;;;;12.30;10.98;;;;;;;14.65;62.88;101409.78;5014547;28;20038;-77
2022/08/11 03:03:52;;;;;;;11.27;10.38;;;;;;;14.59;62.51;101404.53;5014641;28;20030;-76
2022/08/11 03:06:28;;;;;;;12.32;11.25;;;;;;;14.55;62.71;101409.88;5011282;28;20048;-76
2022/08/11 03:09:03;;;;;;;13.43;12.23;;;;;;;14.62;62.12;101404.50;5014300;28;20053;-76
2022/08/11 03:17:54;;;;;;;17.98;11.23;;;;;;;14.69;61.70;101402.66;5007274;28;20483;-76
2022/08/11 03:20:35;;;;;;;12.43;10.48;;;;;;;14.62;63.03;101403.63;5013180;28;20104;-76
2022/08/11 03:23:32;;;;;;;12.82;11.30;;;;;;;14.58;64.10;101400.09;5014261;28;20368;-76
2022/08/11 03:26:05;;;;;;;15.05;11.98;;;;;;;14.56;62.91;101404.53;5013856;28;20087;-77
2022/08/11 03:28:44;;;;;;;14.07;12.57;;;;;;;14.64;62.85;101405.34;5014368;28;20424;-76
2022/08/11 03:31:18;;;;;;;12.70;11.50;;;;;;;14.58;63.34;101404.53;5013989;28;20032;-76
2022/08/11 03:34:01;;;;;;;12.00;10.73;;;;;;;14.52;62.83;101404.56;5014047;28;20510;-77
2022/08/11 03:36:45;;;;;;;12.52;11.52;;;;;;;14.39;63.39;101411.75;4989712;28;20034;-77
2022/08/11 03:39:48;;;;;;;14.52;11.75;;;;;;;14.38;63.83;101407.31;5010419;28;20408;-77
2022/08/11 03:42:42;;;;;;;11.55;10.50;;;;;;;14.40;63.64;101408.19;5011879;28;20037;-76
2022/08/11 03:45:32;;;;;;;16.10;11.05;;;;;;;14.35;63.91;101410.00;5011355;28;20423;-76
2022/08/11 03:48:10;;;;;;;11.98;10.77;;;;;;;14.21;64.68;101411.00;5012654;28;20038;-76
2022/08/11 03:51:07;;;;;;;13.00;11.80;;;;;;;14.24;64.70;101403.00;4993494;28;20411;-77
2022/08/11 03:54:06;;;;;;;11.25;10.25;;;;;;;14.25;64.75;101401.22;5012484;28;20061;-76
2022/08/11 03:57:02;;;;;;;13.18;10.50;;;;;;;14.22;64.34;101404.78;5011661;28;20037;-77
2022/08/11 03:59:50;;;;;;;14.30;11.55;;;;;;;14.21;64.16;101404.81;5007542;28;20046;-76
2022/08/11 04:02:52;;;;;;;13.27;11.98;;;;;;;14.15;64.28;101399.56;5021317;22;20770;-77
2022/08/11 04:05:37;;;;;;;;;;;;;;;14.12;65.66;101399.53;5010413;28;20034;-77
2022/08/11 04:08:21;;;;;;;12.40;10.23;;;;;;;14.00;65.02;101408.47;5009537;28;20348;-76
2022/08/11 04:11:08;;;;;;;11.93;10.82;;;;;;;14.00;65.50;101403.16;5009844;28;20488;-77
2022/08/11 04:15:58;;;;;;;11.02;9.90;;;;;;;14.04;64.74;101412.88;5028835;28;20080;-77
2022/08/11 04:17:18;;;;;;;12.35;9.77;;;;;;;14.05;65.40;101405.81;5030533;28;20083;-77
2022/08/11 04:20:17;;;;;;;14.48;10.35;;;;;;;14.13;66.11;101409.28;5029914;28;20041;-77
2022/08/11 04:23:10;;;;;;;17.00;10.68;;;;;;;14.17;65.42;101408.34;5032469;28;20508;-76
2022/08/11 04:25:54;;;;;;;15.60;11.00;;;;;;;14.21;65.18;101411.00;5031673;28;20578;-77
2022/08/11 04:28:48;;;;;;;11.55;10.35;;;;;;;14.33;65.72;101415.34;5030935;28;20507;-76
2022/08/11 04:31:34;;;;;;;15.73;10.38;;;;;;;14.41;65.95;101416.16;5032278;28;20688;-77
2022/08/11 04:34:26;;;;;;;11.43;10.32;;;;;;;14.51;65.04;101414.28;5030636;28;20414;-77
2022/08/11 04:40:18;;;;;;;10.88;9.98;;;;;;;14.75;65.15;101410.59;5032667;28;20225;-76
2022/08/11 04:43:20;;;;;;;10.52;9.52;;;;;;;14.81;65.86;101415.84;5027592;28;20037;-77
2022/08/11 04:46:10;;;;;;;11.88;10.52;;;;;;;14.88;65.60;101417.56;5031406;28;20136;-77
2022/08/11 05:07:56;;;;;;;13.02;11.82;;;;;;;15.92;62.66;101417.22;5028248;28;20048;-77
2022/08/11 05:10:35;;;;;;;12.20;11.07;;;;;;;15.95;62.61;101417.19;5030461;28;20038;-77
2022/08/11 05:36:53;;;;;;;19.98;16.00;;;;;;;17.45;58.24;101433.28;5011598;28;20064;-77
2022/08/11 05:56:19;;;;;;;14.95;11.82;;;;;;;18.22;57.27;101441.44;5008641;28;20033;-75
2022/08/11 05:58:52;;;;;;;11.02;9.88;;;;;;;18.31;57.08;101436.78;5031235;28;20029;-75
2022/08/11 06:01:29;;;;;;;15.35;13.90;;;;;;;18.45;56.83;101441.78;5027842;28;20444;-75
2022/08/11 06:04:15;;;;;;;14.77;13.57;;;;;;;18.58;56.25;101442.38;5031055;28;20040;-75
2022/08/11 06:06:50;;;;;;;14.85;13.55;;;;;;;18.72;55.72;101444.69;5029690;28;20399;-75
2022/08/11 06:09:35;;;;;;;16.98;15.23;;;;;;;18.81;55.53;101441.78;5027787;28;20043;-75
2022/08/11 06:12:15;;;;;;;14.65;13.25;;;;;;;18.91;55.46;101439.75;5012925;28;20135;-75
2022/08/11 06:14:43;;;;;;;13.90;12.80;;;;;;;19.03;55.21;101443.00;5031016;28;20042;-75
2022/08/11 06:17:08;;;;;;;14.57;13.25;;;;;;;19.14;55.10;101448.06;5031080;28;20057;-75
2022/08/11 06:19:38;;;;;;;17.00;14.50;;;;;;;19.23;54.66;101436.22;5009332;28;20140;-75
2022/08/11 06:22:07;;;;;;;17.42;15.93;;;;;;;19.35;54.38;101445.72;5030946;28;20506;-75
2022/08/11 06:24:35;;;;;;;15.57;14.15;;;;;;;19.41;53.98;101450.88;5017308;28;20044;-76
2022/08/11 06:27:02;;;;;;;17.95;15.20;;;;;;;19.52;53.51;101459.50;5034115;28;20479;-75
2022/08/11 06:29:29;;;;;;;16.13;14.50;;;;;;;19.66;53.04;101451.06;5031206;28;20073;-75
2022/08/11 06:31:59;;;;;;;16.92;15.43;;;;;;;19.79;52.81;101452.50;5034631;28;20399;-76
2022/08/11 06:34:58;;;;;;;16.58;15.20;;;;;;;19.91;52.52;101456.59;5034223;28;20046;-75
2022/08/11 06:37:45;;;;;;;16.17;14.55;;;;;;;20.06;52.03;101458.81;5034542;28;20060;-75
2022/08/11 06:40:34;;;;;;;15.27;13.80;;;;;;;20.22;51.34;101445.78;5034829;28;20048;-75
2022/08/11 06:43:18;;;;;;;17.08;15.55;;;;;;;20.31;51.24;101447.31;5024778;28;20088;-75
2022/08/11 06:46:02;;;;;;;17.33;15.88;;;;;;;20.51;50.94;101446.66;5033370;28;20492;-75
2022/08/11 06:48:30;;;;;;;22.65;20.10;;;;;;;20.65;50.97;101439.09;4998302;28;20037;-75
2022/08/11 06:51:11;;;;;;;25.77;22.98;;;;;;;20.82;50.09;101441.19;5034138;28;20048;-75
2022/08/11 06:53:48;;;;;;;30.73;27.27;;;;;;;20.97;49.79;101448.69;5032065;28;20037;-75
2022/08/11 07:02:17;;;;;;;29.00;24.70;;;;;;;21.35;48.93;101440.19;5033897;28;20072;-76
2022/08/11 07:04:52;;;;;;;;;;;;;;;21.44;48.41;101443.47;5034822;28;20502;-76
2022/08/11 07:17:27;;;;;;;33.85;27.05;;;;;;;22.16;46.57;101444.31;5000775;28;20049;-75
2022/08/11 07:28:54;;;;;;;31.23;26.00;;;;;;;22.43;46.13;101445.06;5030349;28;20075;-75
2022/08/11 07:31:13;;;;;;;23.85;21.50;;;;;;;22.79;44.13;101441.75;5030434;28;20041;-76
2022/08/11 07:33:51;;;;;;;24.67;22.42;;;;;;;22.97;43.80;101432.91;5032880;28;20108;-75
2022/08/11 07:36:17;;;;;;;24.20;22.08;;;;;;;23.13;43.34;101423.25;5008893;28;20033;-76
2022/08/11 07:38:50;;;;;;;21.77;18.92;;;;;;;23.25;42.42;101427.19;5033660;28;20048;-76
2022/08/11 07:41:18;;;;;;;17.63;15.95;;;;;;;23.33;42.53;101430.41;5033372;28;20200;-76
2022/08/11 07:43:48;;;;;;;18.10;16.67;;;;;;;23.46;42.25;101424.47;5033585;28;20044;-75
2022/08/11 07:54:32;;;;;;;17.42;15.93;;;;;;;23.85;39.10;101419.06;5033078;28;20060;-76
2022/08/11 07:56:58;;;;;;;18.40;16.90;;;;;;;23.96;40.29;101414.03;5033466;28;20044;-76
2022/08/11 08:18:39;;;;;;;16.48;15.23;;;;;;;24.96;38.59;101400.09;5029771;28;20509;-75
2022/08/11 08:21:11;;;;;;;16.65;15.48;;;;;;;25.03;38.65;101396.97;5032383;28;20030;-76
2022/08/11 08:23:44;;;;;;;14.40;13.32;;;;;;;25.19;37.41;101399.75;5032993;28;20038;-76
2022/08/11 08:31:45;;;;;;;16.98;15.77;;;;;;;25.47;37.23;101390.19;5032353;28;20044;-76
2022/08/11 08:34:12;;;;;;;13.60;12.43;;;;;;;25.58;36.95;101382.34;5032608;28;20048;-75
2022/08/11 08:36:41;;;;;;;12.95;12.10;;;;;;;25.68;36.34;101394.38;5032988;28;20391;-75
2022/08/11 08:39:07;;;;;;;15.65;14.52;;;;;;;25.82;36.33;101390.03;5032604;28;20068;-76
2022/08/11 08:41:34;;;;;;;14.80;13.73;;;;;;;25.90;35.91;101380.56;5032259;28;20075;-76
2022/08/11 08:44:06;;;;;;;13.45;12.55;;;;;;;26.00;35.18;101383.63;5028893;28;20041;-76
2022/08/11 08:46:42;;;;;;;11.73;10.82;;;;;;;26.02;33.74;101385.28;5032276;28;20124;-76
2022/08/11 08:49:12;;;;;;;13.35;12.18;;;;;;;25.93;34.15;101374.09;5032450;28;20041;-76
2022/08/11 08:51:40;;;;;;;12.52;11.73;;;;;;;26.04;34.85;101368.94;5028783;28;20068;-76
2022/08/11 08:54:15;;;;;;;13.73;12.82;;;;;;;26.21;34.71;101365.25;5031806;28;20041;-76
2022/08/11 08:56:43;;;;;;;13.07;12.20;;;;;;;26.40;33.91;101370.47;5028548;28;20069;-76
2022/08/11 08:59:12;;;;;;;13.32;12.07;;;;;;;26.51;33.88;101367.97;5032322;28;20033;-76
2022/08/11 09:02:03;;;;;;;13.43;12.40;;;;;;;26.66;33.15;101364.38;5031821;28;20403;-76
2022/08/11 09:04:30;;;;;;;14.32;13.15;;;;;;;26.84;33.66;101364.25;5030596;28;20037;-76
2022/08/11 09:07:02;;;;;;;14.10;12.85;;;;;;;26.96;33.74;101363.50;5031222;28;20061;-76
2022/08/11 09:09:28;;;;;;;14.98;13.88;;;;;;;27.05;33.48;101357.50;5028808;28;20072;-76
2022/08/11 09:11:53;;;;;;;15.05;13.95;;;;;;;27.11;33.09;101354.38;5031572;28;20030;-76
2022/08/11 09:14:59;;;;;;;13.88;12.90;;;;;;;27.29;32.88;101354.25;5031947;28;20044;-76
2022/08/11 09:17:17;;;;;;;16.10;14.80;;;;;;;27.47;32.77;101358.47;5027507;28;20049;-76
2022/08/11 09:19:44;;;;;;;14.60;13.43;;;;;;;27.53;32.82;101352.66;5031463;28;20120;-76
2022/08/11 09:27:40;;;;;;;15.25;14.05;;;;;;;27.81;31.79;101350.91;5031602;28;20119;-76
2022/08/11 09:30:07;;;;;;;13.82;12.93;;;;;;;27.80;31.29;101353.69;5022300;28;20446;-76
2022/08/11 09:32:33;;;;;;;14.73;13.73;;;;;;;27.93;30.45;101355.53;5031305;28;20038;-76
2022/08/11 09:35:02;;;;;;;13.75;12.65;;;;;;;28.13;30.10;101347.91;5031588;28;20033;-76
2022/08/11 09:40:29;;;;;;;13.88;12.88;;;;;;;28.40;30.70;101348.75;5029920;28;20056;-76
2022/08/11 09:45:50;;;;;;;14.45;13.55;;;;;;;28.78;29.68;101345.25;5029042;28;20573;-76
2022/08/11 09:48:27;;;;;;;14.68;13.73;;;;;;;28.84;29.96;101336.66;5031314;28;20044;-76
2022/08/11 09:50:56;;;;;;;12.35;11.48;;;;;;;28.62;29.70;101344.59;5025327;28;20084;-76
2022/08/11 09:53:24;;;;;;;12.77;11.98;;;;;;;28.42;29.29;101335.06;5013221;28;20402;-76
2022/08/11 09:55:50;;;;;;;14.07;13.00;;;;;;;28.25;29.79;101341.66;5025294;28;20059;-76
2022/08/11 09:58:16;;;;;;;14.25;13.10;;;;;;;28.11;29.68;101341.69;5030251;28;20128;-76
2022/08/11 10:00:44;;;;;;;13.52;12.60;;;;;;;27.97;29.58;101335.34;5031133;28;20034;-75
2022/08/11 10:03:14;;;;;;;12.93;12.02;;;;;;;27.93;29.46;101341.97;5030781;28;20048;-75
2022/08/11 10:08:32;;;;;;;15.65;12.80;;;;;;;27.66;29.85;101327.47;5029775;28;20549;-74
2022/08/11 10:10:58;;;;;;;14.25;13.07;;;;;;;27.57;30.21;101325.38;5030922;28;20518;-75
2022/08/11 10:13:32;;;;;;;15.02;13.88;;;;;;;27.72;30.01;101318.94;5030794;28;20516;-75
2022/08/11 10:16:02;;;;;;;14.48;13.57;;;;;;;28.00;29.48;101317.13;5030966;28;20063;-75
2022/08/11 10:18:48;;;;;;;13.27;12.18;;;;;;;28.23;28.99;101318.31;5030956;28;20496;-74
2022/08/11 10:21:39;;;;;;;13.38;12.57;;;;;;;28.33;28.28;101314.00;5030654;28;20496;-74
2022/08/11 10:26:54;;;;;;;16.08;14.93;;;;;;;28.93;28.55;101305.28;5029493;28;20283;-75
2022/08/11 10:34:53;;;;;;;13.32;12.52;;;;;;;29.53;27.45;101300.09;5008434;28;20044;-74
2022/08/11 10:37:21;;;;;;;15.50;14.30;;;;;;;29.36;27.75;101298.63;5031093;28;20388;-74
2022/08/11 10:39:48;;;;;;;14.10;13.13;;;;;;;29.52;27.08;101293.78;5021920;28;20491;-75
2022/08/11 10:45:00;;;;;;;16.55;15.20;;;;;;;30.12;26.75;101284.72;5027848;28;20122;-74
2022/08/11 10:47:35;;;;;;;15.20;14.10;;;;;;;30.31;25.95;101273.34;5030772;28;20049;-75
2022/08/11 11:01:06;;;;;;;17.92;16.17;;;;;;;29.37;28.03;101271.34;5027877;28;20045;-75
2022/08/11 11:03:34;;;;;;;19.00;16.27;;;;;;;29.64;27.75;101281.13;5030357;28;20120;-75
2022/08/11 11:06:06;;;;;;;17.60;15.80;;;;;;;29.99;27.00;101267.59;5030438;28;20029;-75
2022/08/11 11:08:53;;;;;;;17.50;15.93;;;;;;;30.17;26.68;101259.03;5031462;28;20064;-75
2022/08/11 11:11:21;;;;;;;13.40;12.50;;;;;;;29.85;26.56;101256.91;5031155;28;20044;-75
2022/08/11 11:19:25;;;;;;;16.25;14.82;;;;;;;29.51;27.84;101264.00;5031610;28;20051;-75
2022/08/11 11:22:36;;;;;;;15.80;14.45;;;;;;;29.65;27.72;101255.69;5033766;28;20088;-75
2022/08/11 11:25:02;;;;;;;15.27;14.10;;;;;;;29.94;26.34;101253.47;5032458;28;20033;-74
2022/08/11 11:27:53;;;;;;;14.70;13.55;;;;;;;30.05;27.00;101242.66;5032471;28;20048;-75
2022/08/11 11:30:19;;;;;;;16.20;15.00;;;;;;;30.19;27.31;101243.44;5033670;28;20160;-75
2022/08/11 11:33:07;;;;;;;16.80;15.73;;;;;;;30.41;27.08;101245.38;5024148;28;20049;-75
2022/08/11 11:35:35;;;;;;;14.85;13.55;;;;;;;30.28;26.67;101226.41;5032995;28;20049;-75
2022/08/11 11:38:01;;;;;;;14.95;13.65;;;;;;;29.88;26.36;101227.63;5030075;28;20033;-75
2022/08/11 11:40:27;;;;;;;16.20;15.15;;;;;;;29.77;25.41;101232.16;5033767;28;20488;-75
2022/08/11 11:42:56;;;;;;;14.50;13.68;;;;;;;29.87;25.97;101233.19;5033261;28;20065;-76
2022/08/11 11:45:26;;;;;;;17.13;16.23;;;;;;;29.90;25.60;101222.06;5033478;28;20041;-74
2022/08/11 11:47:54;;;;;;;16.08;14.98;;;;;;;30.10;25.46;101221.41;5033547;28;20391;-75
2022/08/11 11:50:28;;;;;;;14.50;13.40;;;;;;;30.02;26.27;101223.81;5033531;28;20500;-76
2022/08/11 11:52:54;;;;;;;17.02;16.02;;;;;;;30.52;25.76;101229.94;5033359;28;20033;-75
2022/08/11 11:55:23;;;;;;;16.88;15.82;;;;;;;31.18;25.12;101219.19;5033090;28;20045;-74
2022/08/11 12:03:19;;;;;;;14.85;13.93;;;;;;;31.33;23.84;101219.75;5033165;28;20072;-75
2022/08/11 12:05:44;;;;;;;16.15;15.05;;;;;;;31.36;23.98;101219.53;5023250;28;20091;-74
2022/08/11 12:08:18;;;;;;;14.82;13.93;;;;;;;31.66;23.01;101209.78;5033251;28;20033;-76
2022/08/11 12:10:45;;;;;;;17.20;16.02;;;;;;;32.11;23.12;101211.47;5033336;28;20400;-75
2022/08/11 12:16:00;;;;;;;15.15;14.13;;;;;;;31.85;22.92;101214.53;5031679;28;20594;-75
2022/08/11 12:18:26;;;;;;;17.55;16.25;;;;;;;32.11;23.28;101209.59;5015650;28;20737;-76
2022/08/11 12:20:51;;;;;;;19.15;17.45;;;;;;;32.79;22.65;101203.69;5032203;28;20041;-75
2022/08/11 12:28:46;;;;;;;17.85;16.65;;;;;;;33.82;21.51;101192.44;5031972;28;20200;-75
2022/08/11 12:31:12;;;;;;;15.20;14.18;;;;;;;33.79;21.02;101190.00;5031612;28;20111;-76
2022/08/11 12:33:42;;;;;;;20.73;18.73;;;;;;;34.09;21.47;101183.53;5032517;28;20068;-75
2022/08/11 12:36:15;;;;;;;21.23;19.83;;;;;;;34.74;21.00;101188.25;5032275;28;20044;-76
2022/08/11 12:38:46;;;;;;;21.10;19.90;;;;;;;35.29;19.66;101188.25;5032726;28;20484;-76
2022/08/11 12:46:44;;;;;;;18.80;17.80;;;;;;;35.50;19.07;101155.03;5032449;28;20036;-74
2022/08/11 12:52:10;;;;;;;20.67;19.58;;;;;;;35.34;18.50;101145.63;5029985;28;20040;-76
2022/08/11 12:54:50;;;;;;;20.00;18.88;;;;;;;35.27;18.55;101152.75;5032306;28;20041;-75
2022/08/11 13:05:41;;;;;;;18.27;17.35;;;;;;;35.82;17.72;101139.88;5028054;28;20060;-76
2022/08/11 13:08:08;;;;;;;21.77;20.58;;;;;;;36.15;17.28;101133.66;5031682;28;20384;-76
2022/08/11 13:13:21;;;;;;;21.08;19.52;;;;;;;36.63;17.43;101123.13;5030010;28;20057;-75
2022/08/11 13:15:48;;;;;;;20.83;19.63;;;;;;;37.41;16.97;101127.47;5014684;28;20068;-76
2022/08/11 13:18:22;;;;;;;21.33;19.77;;;;;;;37.96;15.95;101120.44;5031955;28;20033;-75
2022/08/11 13:20:57;;;;;;;22.02;20.73;;;;;;;38.38;15.42;101117.44;5031763;28;20041;-75
2022/08/11 13:23:24;;;;;;;20.05;18.60;;;;;;;38.82;15.48;101116.09;5027650;28;20033;-75
2022/08/11 13:25:54;;;;;;;22.42;20.85;;;;;;;38.79;14.10;101114.53;5031883;28;20037;-76
2022/08/11 13:28:21;;;;;;;21.38;20.00;;;;;;;39.15;14.62;101111.28;5030969;28;20048;-76
2022/08/11 13:33:37;;;;;;;19.50;18.40;;;;;;;39.13;15.01;101105.91;5029435;28;20042;-76
2022/08/11 13:36:03;;;;;;;22.30;20.93;;;;;;;39.33;13.94;101113.72;5013701;28;20029;-76
2022/08/11 13:38:30;;;;;;;22.15;20.77;;;;;;;39.43;13.99;101108.81;5031126;28;20292;-76
2022/08/11 13:40:55;;;;;;;1999.90;999.90;;;;;;;39.22;13.87;101107.59;5031286;28;20041;-76
2022/08/11 13:43:22;;;;;;;1999.90;999.90;;;;;;;38.98;13.55;101104.97;5031173;28;20029;-76
2022/08/11 13:45:48;;;;;;;1999.90;999.90;;;;;;;39.41;13.94;101099.91;5031476;28;20171;-76
2022/08/11 13:48:15;;;;;;;1999.90;999.90;;;;;;;39.89;13.52;101100.50;5029670;28;20045;-75
2022/08/11 13:53:29;;;;;;;1999.90;999.90;;;;;;;39.71;13.48;101091.69;5031075;28;20098;-76
2022/08/11 13:55:59;;;;;;;1999.90;999.90;;;;;;;39.95;12.82;101080.41;5031332;28;20544;-76
2022/08/11 13:58:26;;;;;;;1999.90;999.90;;;;;;;39.92;12.63;101085.47;5030999;28;20043;-76
2022/08/11 14:00:53;;;;;;;1999.90;999.90;;;;;;;39.87;12.91;101080.50;5030927;28;20127;-75
2022/08/11 14:03:27;;;;;;;1999.90;999.90;;;;;;;40.19;12.88;101075.66;5031023;28;20103;-76
2022/08/11 14:05:55;;;;;;;23.33;21.63;;;;;;;40.35;12.56;101085.69;4997351;28;20442;-76
2022/08/11 14:08:26;;;;;;;1999.90;999.90;;;;;;;40.33;12.25;101082.28;5031236;28;20112;-76
2022/08/11 14:13:43;;;;;;;1999.90;999.90;;;;;;;41.03;11.97;101078.91;5027506;28;20044;-76
2022/08/11 14:16:19;;;;;;;1999.90;999.90;;;;;;;41.01;11.03;101066.31;5031121;28;20040;-77
2022/08/11 14:18:47;;;;;;;1999.90;999.90;;;;;;;41.13;11.58;101060.06;5022051;28;20044;-76
2022/08/11 14:24:03;;;;;;;1999.90;999.90;;;;;;;40.95;11.46;101063.28;5030806;28;20446;-71
2022/08/11 14:26:30;;;;;;;1999.90;999.90;;;;;;;41.14;11.48;101058.19;5029548;28;20045;-72
2022/08/11 14:29:01;;;;;;;1999.90;999.90;;;;;;;41.29;11.29;101056.19;5030909;28;20061;-72
2022/08/11 14:31:29;;;;;;;1999.90;999.90;;;;;;;41.77;11.02;101050.88;5030590;28;20488;-72
2022/08/11 14:33:59;;;;;;;1999.90;999.90;;;;;;;41.98;10.83;101049.97;5030904;28;20037;-71
2022/08/11 14:36:28;;;;;;;1999.90;999.90;;;;;;;42.52;11.05;101067.75;5030894;28;20041;-71
2022/08/11 14:38:54;;;;;;;1999.90;999.90;;;;;;;42.65;9.99;101058.63;5030128;28;20046;-71
2022/08/11 14:47:04;;;;;;;1999.90;999.90;;;;;;;43.13;10.36;101058.59;5033020;28;20043;-72
2022/08/11 14:49:33;;;;;;;1999.90;999.90;;;;;;;43.30;9.94;101056.28;5031596;28;20466;-72
2022/08/11 14:52:01;;;;;;;1999.90;999.90;;;;;;;43.68;10.20;101058.41;5034418;28;20483;-71
2022/08/11 14:57:16;;;;;;;1999.90;999.90;;;;;;;44.39;8.93;101043.78;5025849;28;20617;-71
2022/08/11 14:59:43;;;;;;;1999.90;999.90;;;;;;;44.15;8.86;101051.75;5033337;28;20036;-72
2022/08/11 15:04:57;;;;;;;1999.90;999.90;;;;;;;42.92;10.41;101042.97;5034165;28;20040;-72
2022/08/11 15:07:28;;;;;;;1999.90;999.90;;;;;;;43.49;9.26;101041.50;5033982;28;20561;-72
2022/08/11 15:09:55;;;;;;;1999.90;999.90;;;;;;;43.84;10.11;101041.31;5034223;28;20117;-71
2022/08/11 15:12:21;;;;;;;1999.90;999.90;;;;;;;43.79;8.98;101034.69;5033821;28;20120;-71
2022/08/11 15:17:32;;;;;;;1999.90;999.90;;;;;;;43.78;10.00;101024.63;5032935;28;20077;-71
2022/08/11 15:25:33;;;;;;;1999.90;999.90;;;;;;;44.44;9.60;101009.69;5030091;28;20090;-72
2022/08/11 15:39:01;;;;;;;1999.90;999.90;;;;;;;45.32;8.82;101007.00;5031039;28;20045;-71
2022/08/11 15:47:27;;;;;;;1999.90;999.90;;;;;;;45.16;8.87;101002.03;4999446;28;20053;-72
2022/08/11 15:49:56;;;;;;;1999.90;999.90;;;;;;;45.40;8.33;101008.66;5029085;28;20037;-71
2022/08/11 15:52:26;;;;;;;1999.90;999.90;;;;;;;45.50;8.84;101009.00;5032669;28;20115;-71
2022/08/11 15:54:52;;;;;;;1999.90;999.90;;;;;;;45.42;8.63;101012.09;5029043;28;20029;-72
2022/08/11 16:05:46;;;;;;;1999.90;999.90;;;;;;;45.01;8.60;100996.75;5029668;28;20060;-71
2022/08/11 16:08:16;;;;;;;1999.90;999.90;;;;;;;44.65;8.85;100989.91;5032742;28;20041;-71
2022/08/11 16:10:42;;;;;;;1999.90;999.90;;;;;;;44.82;8.90;100985.53;5032389;28;20037;-72
2022/08/11 16:18:39;;;;;;;1999.90;999.90;;;;;;;45.01;8.44;100983.66;5028942;28;20052;-71
2022/08/11 16:21:26;;;;;;;1999.90;999.90;;;;;;;44.74;8.56;100977.41;5032122;28;20482;-71
2022/08/11 16:23:55;;;;;;;1999.90;999.90;;;;;;;44.33;8.57;100981.47;5015291;28;20558;-72